Latest  Newer  Older  Last 2 hours slideshow  Last 24 hours slideshow  Refresh every 5 minutes 
Current image  Latest image  Rain/snow radar  Cloud coverage sat images 

All time is UTC (add 2 hours to UTC in wintertime, 3 hours to UTC in DST for Latvia local time)

2022/05/21 15:50 EVRA 211550Z 08004KT 040V100 6000 -RA BKN004 OVC007 11/10 Q1003 TEMPO 3000 BR
2022/05/21 15:50 EVLA 211550Z AUTO 27003KT 230V320 9999 -RA OVC005/// 09/08 Q1003
2022/05/21 15:50 EVVA 211550Z AUTO 05005KT 6000 -RA BKN007 OVC011 10/10 Q1004
2022/05/21 15:50 EYKA 211550Z 35004KT 320V030 9000 OVC007 13/11 Q1002
2022/05/21 15:50 EYPA 211550Z 29005KT 230V340 9999 BKN006 09/08 Q1004
2022/05/21 15:50 EYSA 211550Z 29008KT 6000 -RA BKN006 OVC015 11/11 Q1003 NOSIG
2022/05/21 15:50 EYVI 211550Z 07005KT 9999 BKN006 BKN056CB 13/12 Q1000 NOSIG
2022/05/21 07:50 EEKA 210750Z 03012KT 350V070 CAVOK 09/05 Q1008
2022/05/21 15:50 EEKE 211550Z AUTO 09006KT 070V130 9999NDV -RA BKN043 OVC049 11/08 Q1006
2022/05/21 15:50 EEPU 211550Z AUTO 08004KT 050V120 9999 OVC071/// 16/04 Q1005
2022/05/21 15:50 EETN 211550Z 06017G27KT CAVOK 12/M00 Q1008 NOSIG
2022/05/21 15:50 EETU 211550Z AUTO 09008KT 9999 OVC100/// 16/00 Q1005
   RIGA AIRPORT     EVRA               56 55N  023 58E   10   X     T          6 LV
   LIEPAJA INTL     EVLA        26406  56 31N  021 06E    4   X                8 LV
   VENTPILS         EVVA               57 21N  021 33E    6   X                8 LV
   KAUNAS           EYKA               54 54N  023 55E   77   X     T          6 LT
   PALANGA INTL     EYPA               55 55N  021 03E   10   X                6 LT
   SIAULIAI INTL    EYSA               55 54N  023 24E  135   X     T          6 LT
   VILNIUS INTL     EYVI        26730  54 38N  025 17E  197   X     T          6 LT
   KARDLA           EEKA        26116  58 59N  022 50E    4   X                8 EE
   KURESSAARE       EEKE               58 14N  022 31E    4   X                8 EE
   PARNU            EEPU               58 25N  024 28E   14   X                8 EE
   TALLINN          EETN        26038  59 24N  024 49E   40   X     T          8 EE
   TARTU            EETU               58 19N  026 41E   67   X                8 EE